KPMU/PMU METAR and TAF weather

Enter ICAO airport designator
Station Type Date Time Source
KPMU METAR 2022/01/26 07:35 UTC NOAA

KPMU 260735Z AUTO 02005KT 10SM CLR M02/M10 A3038 RMK AO2


Station Type Date Time Source
KPMU Decoded METAR 2022/01/26 07:35 UTC NOAA

Station name not available
Jan 26, 2022 - 02:35 AM EST / 2022.01.26 0735 UTC
Wind: from the NNE (020 degrees) at 6 MPH (5 KT):0
Visibility: 10 mile(s):0
Sky conditions: clear
Temperature: 28 F (-2 C)
Windchill: 21 F (-6 C):1
Dew Point: 14 F (-10 C)
Relative Humidity: 54%
Pressure (altimeter): 30.38 in. Hg (1028 hPa)
ob: KPMU 260735Z AUTO 02005KT 10SM CLR M02/M10 A3038 RMK AO2
cycle: 7

Station Type Date Time Source
KPMU TAF UTC NOAA

Error!

Example: see airport list